createdAt,value
2024-01-28T00:01:00.707Z,101990.47
2024-01-28T00:06:02.218Z,101993.34
2024-01-28T00:11:03.611Z,101985.72
2024-01-28T00:16:05.054Z,101981.47
2024-01-28T00:21:06.427Z,101983.50
2024-01-28T00:26:08.299Z,101974.22
2024-01-28T00:31:11.007Z,101975.47
2024-01-28T00:36:16.656Z,101972.75
2024-01-28T00:41:24.075Z,101980.94
2024-01-28T00:46:25.453Z,101977.75
2024-01-28T00:51:26.807Z,101979.97
2024-01-28T00:56:28.186Z,101982.66
2024-01-28T01:01:29.616Z,101979.88
2024-01-28T01:06:31.051Z,101983.91
2024-01-28T01:11:32.425Z,101986.25
2024-01-28T01:16:33.717Z,101980.38
2024-01-28T01:21:35.070Z,101981.88
2024-01-28T01:26:36.519Z,101974.31
2024-01-28T01:31:37.866Z,101978.84
2024-01-28T01:36:42.735Z,101984.47
2024-01-28T01:41:44.811Z,101977.47
2024-01-28T01:46:46.444Z,101992.53
2024-01-28T01:51:47.788Z,101990.97
2024-01-28T01:56:49.104Z,101985.84
2024-01-28T02:01:50.450Z,101983.72
2024-01-28T02:06:51.749Z,101985.63
2024-01-28T02:11:53.048Z,101986.03
2024-01-28T02:16:54.402Z,101985.50
2024-01-28T02:21:55.768Z,101981.81
2024-01-28T02:26:57.154Z,101983.22
2024-01-28T02:31:58.474Z,101982.13
2024-01-28T02:36:59.772Z,101974.56
2024-01-28T02:42:01.129Z,101972.00
2024-01-28T02:47:02.727Z,101969.66
2024-01-28T02:52:04.070Z,101981.72
2024-01-28T02:57:05.550Z,101978.56
2024-01-28T03:02:07.089Z,101982.16
2024-01-28T03:07:08.450Z,101983.22
2024-01-28T03:12:09.836Z,101982.31
2024-01-28T03:17:11.145Z,101982.13
2024-01-28T03:22:12.444Z,101987.69
2024-01-28T03:27:14.125Z,101979.50
2024-01-28T03:32:15.492Z,101976.16
2024-01-28T03:37:16.784Z,101979.69
2024-01-28T03:42:18.545Z,101973.13
2024-01-28T03:47:20.400Z,101966.56
2024-01-28T03:52:21.829Z,101982.66
2024-01-28T03:57:23.229Z,101978.31
2024-01-28T04:02:24.699Z,101973.25
2024-01-28T04:07:26.185Z,101970.78
2024-01-28T04:12:27.701Z,101973.09
2024-01-28T04:17:29.225Z,101972.38
2024-01-28T04:22:31.013Z,101960.53
2024-01-28T04:27:32.350Z,101958.47
2024-01-28T04:32:33.718Z,101960.31
2024-01-28T04:37:35.039Z,101956.25
2024-01-28T04:42:36.761Z,101953.38
2024-01-28T04:47:38.975Z,101945.19
2024-01-28T04:52:40.307Z,101941.59
2024-01-28T04:57:41.652Z,101940.34
2024-01-28T05:02:42.963Z,101937.19
2024-01-28T05:07:44.356Z,101938.50
2024-01-28T05:12:49.331Z,101936.16
2024-01-28T05:17:51.191Z,101943.16
2024-01-28T05:22:52.763Z,101941.59
2024-01-28T05:27:55.016Z,101943.72
2024-01-28T05:32:56.345Z,101938.03
2024-01-28T05:37:57.649Z,101934.19
2024-01-28T05:42:59.017Z,101937.31
2024-01-28T05:48:03.071Z,101940.53
2024-01-28T05:53:04.803Z,101944.78
2024-01-28T05:58:06.130Z,101952.47
2024-01-28T06:03:07.635Z,101946.81
2024-01-28T06:08:09.095Z,101952.69
2024-01-28T06:13:10.477Z,101955.09
2024-01-28T06:18:11.887Z,101967.47
2024-01-28T06:23:13.194Z,101962.41
2024-01-28T06:28:15.221Z,101963.31
2024-01-28T06:33:16.799Z,101973.22
2024-01-28T06:38:19.765Z,101967.94
2024-01-28T06:43:21.081Z,101973.41
2024-01-28T06:48:22.620Z,101972.66
2024-01-28T06:53:23.986Z,101982.31
2024-01-28T06:58:25.264Z,101973.81
2024-01-28T07:03:26.728Z,101980.50
2024-01-28T07:08:28.149Z,101978.53
2024-01-28T07:13:29.514Z,101975.34
2024-01-28T07:18:30.875Z,101977.97
2024-01-28T07:23:32.311Z,101976.06
2024-01-28T07:28:35.126Z,101966.88
2024-01-28T07:33:36.587Z,101968.00
2024-01-28T07:38:37.998Z,101967.78
2024-01-28T07:43:39.325Z,101968.78
2024-01-28T07:48:40.904Z,101961.09
2024-01-28T07:53:44.923Z,101965.94
2024-01-28T07:58:48.465Z,101960.63
2024-01-28T08:03:50.828Z,101969.41
2024-01-28T08:08:52.433Z,101957.78
2024-01-28T08:13:53.877Z,101965.97
2024-01-28T08:18:55.553Z,101946.44
2024-01-28T08:23:56.935Z,101953.00
2024-01-28T08:28:58.408Z,101960.19
2024-01-28T08:34:01.789Z,101947.25
2024-01-28T08:39:05.968Z,101948.19
2024-01-28T08:44:08.027Z,101944.38
2024-01-28T08:49:09.439Z,101946.53
2024-01-28T08:54:12.375Z,101937.47
2024-01-28T08:59:13.738Z,101945.81
2024-01-28T09:04:15.167Z,101952.31
2024-01-28T09:09:18.029Z,101950.25
2024-01-28T09:14:19.399Z,101942.97
2024-01-28T09:19:20.749Z,101950.94
2024-01-28T09:24:22.119Z,101956.44
2024-01-28T09:29:23.562Z,101955.59
2024-01-28T09:34:24.936Z,101947.34
2024-01-28T09:39:26.397Z,101960.53
2024-01-28T09:44:30.480Z,101964.13
2024-01-28T09:49:32.319Z,101948.59
2024-01-28T09:54:33.808Z,101945.47
2024-01-28T09:59:36.360Z,101940.97
2024-01-28T10:04:38.620Z,101953.38
2024-01-28T10:09:40.139Z,101938.69
2024-01-28T10:14:49.673Z,101925.56
2024-01-28T10:19:51.219Z,101909.81
2024-01-28T10:24:52.723Z,101908.19
2024-01-28T10:29:54.090Z,101905.59
2024-01-28T10:34:55.496Z,101901.00
2024-01-28T10:39:57.241Z,101900.81
2024-01-28T10:45:00.907Z,101903.53
2024-01-28T10:50:04.148Z,101903.72
2024-01-28T10:55:05.840Z,101900.13
2024-01-28T11:00:07.346Z,101895.97
2024-01-28T11:05:08.748Z,101884.41
2024-01-28T11:10:10.315Z,101857.00
2024-01-28T11:15:12.953Z,101851.53
2024-01-28T11:20:18.321Z,101849.81
2024-01-28T11:25:30.054Z,101835.03
2024-01-28T11:30:31.750Z,101833.41
2024-01-28T11:35:33.724Z,101826.88
2024-01-28T11:40:36.254Z,101830.69
2024-01-28T11:45:37.943Z,101823.94
2024-01-28T11:50:44.288Z,101828.94
2024-01-28T11:55:45.572Z,101815.25
2024-01-28T12:00:46.978Z,101814.44
2024-01-28T12:05:48.381Z,101807.03
2024-01-28T12:10:55.968Z,101792.53
2024-01-28T12:15:59.349Z,101781.56
2024-01-28T12:21:00.955Z,101778.84
2024-01-28T12:26:02.268Z,101777.78
2024-01-28T12:31:03.666Z,101770.00
2024-01-28T12:36:05.120Z,101767.28
2024-01-28T12:41:06.712Z,101766.66
2024-01-28T12:46:08.766Z,101762.19
2024-01-28T12:51:10.210Z,101760.31
2024-01-28T12:56:11.622Z,101763.28
2024-01-28T13:01:13.029Z,101758.00
2024-01-28T13:06:14.437Z,101759.25
2024-01-28T13:11:16.024Z,101758.19
2024-01-28T13:16:17.830Z,101740.91
2024-01-28T13:21:19.224Z,101748.31
2024-01-28T13:26:21.824Z,101732.13
2024-01-28T13:31:23.110Z,101730.59
2024-01-28T13:36:24.637Z,101732.28
2024-01-28T13:41:26.092Z,101725.13
2024-01-28T13:46:27.439Z,101729.16
2024-01-28T13:51:28.745Z,101733.78
2024-01-28T13:56:30.106Z,101732.94
2024-01-28T14:01:31.454Z,101728.31
2024-01-28T14:06:33.031Z,101726.81
2024-01-28T14:11:37.631Z,101729.97
2024-01-28T14:16:39.206Z,101722.41
2024-01-28T14:21:40.557Z,101723.47
2024-01-28T14:26:41.859Z,101716.28
2024-01-28T14:31:43.308Z,101723.03
2024-01-28T14:36:44.696Z,101719.44
2024-01-28T14:41:47.614Z,101720.09
2024-01-28T14:46:50.082Z,101720.91
2024-01-28T14:51:52.094Z,101716.91
2024-01-28T14:56:54.171Z,101719.47
2024-01-28T15:01:55.483Z,101713.56
2024-01-28T15:06:56.846Z,101708.72
2024-01-28T15:11:58.155Z,101712.06
2024-01-28T15:16:59.452Z,101709.31
2024-01-28T15:22:00.780Z,101709.13
2024-01-28T15:27:02.118Z,101714.38
2024-01-28T15:32:03.635Z,101704.72
2024-01-28T15:37:05.036Z,101704.72
2024-01-28T15:42:06.703Z,101715.84
2024-01-28T15:47:08.103Z,101721.75
2024-01-28T15:52:09.510Z,101721.94
2024-01-28T15:57:10.830Z,101709.34
2024-01-28T16:02:14.640Z,101708.53
2024-01-28T16:07:16.211Z,101707.66
2024-01-28T16:12:17.585Z,101707.88
2024-01-28T16:17:24.110Z,101706.16
2024-01-28T16:22:25.509Z,101715.41
2024-01-28T16:27:26.863Z,101716.50
2024-01-28T16:32:28.193Z,101711.44
2024-01-28T16:37:29.542Z,101713.94
2024-01-28T16:42:30.948Z,101718.38
2024-01-28T16:47:32.324Z,101720.91
2024-01-28T16:52:33.625Z,101717.06
2024-01-28T16:57:35.339Z,101708.88
2024-01-28T17:02:36.653Z,101706.53
2024-01-28T17:07:37.948Z,101710.34
2024-01-28T17:12:39.274Z,101712.44
2024-01-28T17:17:41.056Z,101718.75
2024-01-28T17:22:42.452Z,101721.28
2024-01-28T17:27:43.793Z,101723.38
2024-01-28T17:32:45.357Z,101724.03
2024-01-28T17:37:46.934Z,101723.16
2024-01-28T17:42:48.348Z,101721.69
2024-01-28T17:47:49.738Z,101708.22
2024-01-28T17:52:55.031Z,101723.56
2024-01-28T17:57:56.517Z,101726.09
2024-01-28T18:02:58.090Z,101723.38
2024-01-28T18:07:59.442Z,101719.16
2024-01-28T18:13:00.744Z,101728.84
2024-01-28T18:18:03.186Z,101723.34
2024-01-28T18:23:06.193Z,101715.97
2024-01-28T18:28:07.549Z,101722.97
2024-01-28T18:33:09.228Z,101724.00
2024-01-28T18:38:11.490Z,101717.69
2024-01-28T18:43:12.929Z,101734.75
2024-01-28T18:48:18.578Z,101723.38
2024-01-28T18:53:22.940Z,101726.97
2024-01-28T18:58:24.605Z,101711.59
2024-01-28T19:03:25.968Z,101710.56
2024-01-28T19:08:27.317Z,101704.84
2024-01-28T19:13:28.832Z,101704.81
2024-01-28T19:18:31.728Z,101714.09
2024-01-28T19:23:33.098Z,101705.47
2024-01-28T19:28:35.224Z,101704.81
2024-01-28T19:33:36.759Z,101697.03
2024-01-28T19:38:38.158Z,101699.19
2024-01-28T19:43:39.440Z,101704.00
2024-01-28T19:48:40.934Z,101697.69
2024-01-28T19:53:43.425Z,101696.00
2024-01-28T19:58:44.920Z,101691.38
2024-01-28T20:03:46.314Z,101696.84
2024-01-28T20:08:47.675Z,101705.47
2024-01-28T20:13:49.679Z,101697.28
2024-01-28T20:18:51.158Z,101701.22
2024-01-28T20:23:52.669Z,101697.66
2024-01-28T20:28:54.658Z,101698.91
2024-01-28T20:33:56.086Z,101694.91
2024-01-28T20:38:57.576Z,101704.59
2024-01-28T20:43:58.942Z,101689.22
2024-01-28T20:49:00.433Z,101686.50
2024-01-28T20:54:01.872Z,101692.63
2024-01-28T20:59:03.190Z,101688.03
2024-01-28T21:04:04.581Z,101682.94
2024-01-28T21:09:05.921Z,101670.72
2024-01-28T21:14:07.329Z,101665.69
2024-01-28T21:19:09.542Z,101668.00
2024-01-28T21:24:11.617Z,101676.66
2024-01-28T21:29:12.969Z,101660.03
2024-01-28T21:34:14.505Z,101664.44
2024-01-28T21:39:16.044Z,101662.53
2024-01-28T21:44:17.489Z,101653.91
2024-01-28T21:49:18.882Z,101662.31
2024-01-28T21:54:20.261Z,101653.72
2024-01-28T21:59:21.570Z,101658.56
2024-01-28T22:04:22.980Z,101658.13
2024-01-28T22:09:24.419Z,101660.84
2024-01-28T22:14:25.735Z,101656.41
2024-01-28T22:19:27.087Z,101666.50
2024-01-28T22:24:28.422Z,101664.00
2024-01-28T22:29:29.806Z,101661.25
2024-01-28T22:34:32.124Z,101665.66
2024-01-28T22:39:33.488Z,101655.13
2024-01-28T22:44:34.868Z,101658.31
2024-01-28T22:49:36.347Z,101649.03
2024-01-28T22:54:37.898Z,101631.38
2024-01-28T22:59:39.278Z,101623.78
2024-01-28T23:04:40.747Z,101620.00
2024-01-28T23:09:42.306Z,101621.88
2024-01-28T23:14:43.653Z,101618.13
2024-01-28T23:19:44.980Z,101609.72
2024-01-28T23:24:46.319Z,101603.78
2024-01-28T23:29:47.665Z,101604.84
2024-01-28T23:34:49.155Z,101610.13
2024-01-28T23:39:50.556Z,101602.53
2024-01-28T23:44:51.854Z,101594.13
2024-01-28T23:49:54.761Z,101584.88
2024-01-28T23:54:57.207Z,101581.53
2024-01-28T23:59:59.026Z,101585.94
